Terminal Aerodrome Forecast
Issued by NWS Wakefield, VA

Home | Current Version | Previous Version | Text Only | Print | Product List | Glossary On
Versions: 1 2 3 4 5 6 7 8 9 10 11 12 13 14 15
000
FTUS41 KAKQ 261138
TAFSBY
TAF
KSBY 261138Z 2612/2712 29010KT P6SM SKC
     FM261400 29012G20KT P6SM SCT060
     FM262100 28005KT P6SM SKC
     FM270200 00000KT P6SM SKC=

USA.gov is the U.S. government's official web portal to all federal, state and local government web resources and services.